Time;durP1;ratioP1;P1;durP2;ratioP2;P2;SDS_P1;SDS_P2;PMS_P1;PMS_P2;Temp;Humidity;BMP_temperature;BMP_pressure;BME280_temperature;BME280_humidity;BME280_pressure;Samples;Min_cycle;Max_cycle;Signal;HPM_P1;HPM_P2
2022/10/15 00:03:03;;;;;;;45.70;33.13;;;;;;;;;;10431214;28;20233;-84
2022/10/15 00:08:25;;;;;;;48.07;31.47;;;;;;;;;;10414553;28;20197;-82
2022/10/15 00:13:46;;;;;;;47.67;29.53;;;;;;;;;;10465583;28;20233;-84
2022/10/15 00:19:09;;;;;;;45.70;29.93;;;;;;;;;;10469201;28;20248;-82
2022/10/15 00:24:30;;;;;;;39.90;28.13;;;;;;;;;;10436502;28;20208;-83
2022/10/15 00:29:51;;;;;;;40.83;26.30;;;;;;;;;;10437705;28;20251;-83
2022/10/15 00:35:13;;;;;;;41.47;29.03;;;;;;;;;;10427361;28;20468;-83
2022/10/15 00:40:34;;;;;;;39.80;28.27;;;;;;;;;;10428175;28;20397;-83
2022/10/15 00:45:55;;;;;;;36.40;26.97;;;;;;;;;;10441392;28;20235;-83
2022/10/15 00:51:18;;;;;;;35.57;26.90;;;;;;;;;;10427080;28;20194;-86
2022/10/15 00:56:41;;;;;;;38.60;26.97;;;;;;;;;;10426687;28;20233;-83
2022/10/15 01:02:03;;;;;;;45.07;29.80;;;;;;;;;;10428847;28;20251;-83
2022/10/15 01:07:24;;;;;;;47.20;30.63;;;;;;;;;;10425991;28;20203;-82
2022/10/15 01:12:58;;;;;;;41.57;29.67;;;;;;;;;;10457986;28;20193;-83
2022/10/15 01:18:31;;;;;;;38.70;28.63;;;;;;;;;;10469478;28;20203;-82
2022/10/15 01:24:12;;;;;;;38.20;27.50;;;;;;;;;;10438023;28;20244;-81
2022/10/15 01:29:51;;;;;;;43.13;27.50;;;;;;;;;;10435052;28;20237;-83
2022/10/15 01:35:22;;;;;;;46.80;30.90;;;;;;;;;;10424959;28;20245;-81
2022/10/15 01:40:47;;;;;;;41.97;29.63;;;;;;;;;;10427738;28;20458;-83
2022/10/15 01:46:12;;;;;;;41.30;28.27;;;;;;;;;;10416783;28;20432;-83
2022/10/15 01:51:55;;;;;;;38.03;26.30;;;;;;;;;;10411429;28;20403;-84
2022/10/15 01:57:19;;;;;;;34.07;25.00;;;;;;;;;;10425454;28;20368;-84
2022/10/15 02:02:41;;;;;;;34.67;26.07;;;;;;;;;;10429925;28;20231;-83
2022/10/15 02:08:28;;;;;;;30.63;23.90;;;;;;;;;;10410686;28;20194;-84
2022/10/15 02:14:02;;;;;;;36.00;25.57;;;;;;;;;;10429729;28;20204;-83
2022/10/15 02:19:32;;;;;;;34.90;24.73;;;;;;;;;;10424035;28;20204;-83
2022/10/15 02:24:56;;;;;;;37.90;24.67;;;;;;;;;;10418918;28;20195;-84
2022/10/15 02:30:18;;;;;;;39.10;23.97;;;;;;;;;;10421247;28;20260;-83
2022/10/15 02:35:41;;;;;;;35.27;24.37;;;;;;;;;;10426000;28;20196;-81
2022/10/15 02:41:02;;;;;;;30.30;24.00;;;;;;;;;;10425300;28;20413;-82
2022/10/15 02:46:24;;;;;;;34.00;23.73;;;;;;;;;;10421521;28;20193;-83
2022/10/15 02:51:45;;;;;;;35.93;24.07;;;;;;;;;;10422553;28;20416;-83
2022/10/15 02:57:09;;;;;;;35.43;24.70;;;;;;;;;;10425526;28;20235;-85
2022/10/15 03:02:33;;;;;;;34.87;24.80;;;;;;;;;;10436338;28;20232;-83
2022/10/15 03:07:55;;;;;;;38.27;27.40;;;;;;;;;;10408291;28;20207;-84
2022/10/15 03:13:17;;;;;;;41.17;27.93;;;;;;;;;;10397817;28;20194;-83
2022/10/15 03:18:44;;;;;;;45.20;30.53;;;;;;;;;;10407945;28;20239;-83
2022/10/15 03:24:06;;;;;;;48.43;32.43;;;;;;;;;;10438647;28;20225;-83
2022/10/15 03:29:27;;;;;;;49.87;31.20;;;;;;;;;;10458810;28;20243;-83
2022/10/15 03:34:54;;;;;;;57.77;34.90;;;;;;;;;;10421413;28;20207;-82
2022/10/15 03:40:16;;;;;;;52.10;34.70;;;;;;;;;;10421728;28;20222;-84
2022/10/15 03:45:38;;;;;;;50.63;33.37;;;;;;;;;;10423887;28;20202;-84
2022/10/15 03:51:11;;;;;;;50.43;33.70;;;;;;;;;;10423126;28;20240;-82
2022/10/15 03:56:34;;;;;;;49.70;33.17;;;;;;;;;;10422623;28;20215;-82
2022/10/15 04:02:12;;;;;;;56.90;37.43;;;;;;;;;;10417058;28;20259;-84
2022/10/15 04:07:35;;;;;;;55.40;36.43;;;;;;;;;;10431547;28;20243;-83
2022/10/15 04:13:04;;;;;;;56.53;36.67;;;;;;;;;;10430565;28;20277;-85
2022/10/15 04:18:28;;;;;;;53.10;35.33;;;;;;;;;;10442226;28;20184;-83
2022/10/15 04:23:50;;;;;;;52.67;36.20;;;;;;;;;;10436140;28;20228;-85
2022/10/15 04:29:27;;;;;;;52.17;36.03;;;;;;;;;;10443933;28;20302;-83
2022/10/15 04:34:58;;;;;;;59.40;39.13;;;;;;;;;;10431701;28;20238;-82
2022/10/15 04:40:40;;;;;;;60.17;39.90;;;;;;;;;;10444130;28;20221;-83
2022/10/15 04:46:02;;;;;;;62.37;39.97;;;;;;;;;;10429822;28;20201;-82
2022/10/15 04:51:25;;;;;;;62.27;42.37;;;;;;;;;;10426978;28;20205;-82
2022/10/15 04:57:05;;;;;;;68.10;44.40;;;;;;;;;;10440364;28;20264;-82
2022/10/15 05:02:29;;;;;;;67.47;44.83;;;;;;;;;;10429546;28;20296;-82
2022/10/15 05:08:03;;;;;;;71.97;44.63;;;;;;;;;;10448431;28;20380;-87
2022/10/15 05:13:45;;;;;;;74.77;48.30;;;;;;;;;;10482090;28;20195;-83
2022/10/15 05:19:08;;;;;;;64.47;43.20;;;;;;;;;;10483797;28;20199;-84
2022/10/15 05:24:31;;;;;;;75.53;51.97;;;;;;;;;;10449856;28;20519;-83
2022/10/15 05:30:15;;;;;;;79.17;49.63;;;;;;;;;;10444221;28;20260;-82
2022/10/15 05:35:44;;;;;;;86.30;51.10;;;;;;;;;;10452642;28;20193;-84
2022/10/15 05:41:06;;;;;;;87.73;52.20;;;;;;;;;;10468666;28;20304;-85
2022/10/15 05:46:27;;;;;;;148.50;73.80;;;;;;;;;;10482742;28;20425;-83
2022/10/15 05:51:49;;;;;;;86.77;53.53;;;;;;;;;;10452159;28;20232;-82
2022/10/15 05:57:22;;;;;;;78.23;50.30;;;;;;;;;;10465495;28;20202;-83
2022/10/15 06:02:44;;;;;;;85.93;51.57;;;;;;;;;;10481774;28;20556;-82
2022/10/15 06:08:05;;;;;;;77.93;48.80;;;;;;;;;;10443975;28;20512;-83
2022/10/15 06:13:27;;;;;;;70.30;45.07;;;;;;;;;;10426328;28;20210;-83
2022/10/15 06:18:48;;;;;;;65.10;45.30;;;;;;;;;;10423393;28;20199;-82
2022/10/15 06:24:09;;;;;;;75.00;45.67;;;;;;;;;;10437011;28;20225;-83
2022/10/15 06:29:31;;;;;;;77.70;47.40;;;;;;;;;;10455473;28;20247;-83
2022/10/15 06:34:54;;;;;;;72.10;47.07;;;;;;;;;;10436545;28;20443;-82
2022/10/15 06:40:16;;;;;;;85.80;54.07;;;;;;;;;;10425779;28;20456;-83
2022/10/15 06:45:38;;;;;;;61.43;41.73;;;;;;;;;;10411909;28;20222;-84
2022/10/15 06:51:05;;;;;;;66.90;43.13;;;;;;;;;;10410880;28;20382;-85
2022/10/15 06:56:27;;;;;;;71.47;47.00;;;;;;;;;;10409277;28;20204;-86
2022/10/15 07:01:48;;;;;;;73.87;45.20;;;;;;;;;;10415312;28;20234;-85
2022/10/15 07:07:10;;;;;;;70.63;46.67;;;;;;;;;;10444063;28;20359;-83
2022/10/15 07:12:31;;;;;;;68.23;45.60;;;;;;;;;;10421457;28;20393;-82
2022/10/15 07:17:55;;;;;;;67.57;44.67;;;;;;;;;;10436244;28;20214;-86
2022/10/15 07:23:17;;;;;;;65.37;44.33;;;;;;;;;;10424631;28;20256;-86
2022/10/15 07:28:38;;;;;;;60.93;40.90;;;;;;;;;;10441158;28;20242;-83
2022/10/15 07:34:00;;;;;;;67.33;46.00;;;;;;;;;;10441666;28;20208;-86
2022/10/15 07:39:21;;;;;;;64.13;41.73;;;;;;;;;;10466069;28;20269;-83
2022/10/15 07:44:42;;;;;;;63.23;40.13;;;;;;;;;;10485708;28;20221;-84
2022/10/15 07:50:07;;;;;;;61.73;40.73;;;;;;;;;;10470563;28;20193;-84
2022/10/15 07:55:28;;;;;;;61.30;40.07;;;;;;;;;;10484636;28;20273;-84
2022/10/15 08:00:50;;;;;;;56.53;36.40;;;;;;;;;;10470614;28;20228;-82
2022/10/15 08:06:11;;;;;;;58.53;39.33;;;;;;;;;;10476693;28;20201;-83
2022/10/15 08:11:33;;;;;;;64.70;39.13;;;;;;;;;;10431574;28;20225;-83
2022/10/15 08:16:54;;;;;;;58.65;38.13;;;13.90;1.00;;;;;;10414604;28;20223;-83
2022/10/15 08:22:15;;;;;;;60.97;44.88;;;13.80;1.00;;;;;;10444362;28;20302;-83
2022/10/15 08:27:36;;;;;;;56.97;39.92;;;13.60;1.00;;;;;;10433068;28;20509;-82
2022/10/15 08:32:58;;;;;;;55.72;38.55;;;13.60;1.00;;;;;;10417049;28;20207;-85
2022/10/15 08:38:20;;;;;;;57.33;38.40;;;13.30;1.00;;;;;;10454107;28;20265;-85
2022/10/15 08:43:42;;;;;;;54.60;39.97;;;13.20;1.00;;;;;;10483822;28;20238;-85
2022/10/15 08:49:21;;;;;;;56.15;37.33;;;13.10;6.90;;;;;;10454977;28;20455;-83
2022/10/15 08:54:42;;;;;;;53.03;35.72;;;13.20;12.70;;;;;;10470468;28;20195;-82
2022/10/15 09:00:18;;;;;;;49.58;35.30;;;13.40;6.80;;;;;;10497647;28;20278;-84
2022/10/15 09:05:49;;;;;;;51.07;36.47;;;13.30;1.00;;;;;;10455675;28;20200;-83
2022/10/15 09:11:44;;;;;;;54.40;36.43;;;13.30;1.00;;;;;;10429328;28;20199;-83
2022/10/15 09:17:24;;;;;;;52.50;34.30;;;13.10;1.00;;;;;;10444107;28;20209;-83
2022/10/15 09:22:50;;;;;;;55.60;37.90;;;13.00;8.50;;;;;;10426553;28;20611;-82
2022/10/15 09:28:17;;;;;;;52.10;35.47;;;13.00;34.30;;;;;;10463520;28;20247;-84
2022/10/15 09:34:01;;;;;;;46.73;34.23;;;12.80;79.10;;;;;;10411558;28;20256;-84
2022/10/15 09:39:38;;;;;;;43.03;31.10;;;12.70;80.80;;;;;;10438999;28;20206;-83
2022/10/15 09:45:03;;;;;;;49.00;35.00;;;12.70;99.90;;;;;;10412026;28;20260;-82
2022/10/15 09:51:01;;;;;;;46.17;33.47;;;12.60;99.90;;;;;;10424772;28;20273;-85
2022/10/15 09:56:31;;;;;;;47.47;33.93;;;12.60;99.90;;;;;;10257992;28;20237;-84
2022/10/15 10:01:59;;;;;;;49.80;32.63;;;12.70;99.90;;;;;;10259946;29;20238;-84
2022/10/15 10:07:30;;;;;;;49.67;33.67;;;12.80;99.90;;;;;;10259988;29;20257;-84
2022/10/15 10:12:53;;;;;;;52.83;36.60;;;12.90;99.90;;;;;;10287215;28;20321;-84
2022/10/15 10:18:24;;;;;;;50.57;33.83;;;12.90;99.90;;;;;;10275681;28;20210;-83
2022/10/15 10:23:45;;;;;;;53.20;37.20;;;12.90;99.90;;;;;;10275693;28;20244;-83
2022/10/15 10:29:06;;;;;;;49.57;35.20;;;13.00;99.90;;;;;;10259353;28;20237;-85
2022/10/15 10:34:35;;;;;;;49.93;34.53;;;12.80;99.90;;;;;;10410735;28;20241;-83
2022/10/15 10:39:59;;;;;;;46.53;31.13;;;12.90;99.90;;;;;;10401269;28;20440;-81
2022/10/15 10:45:22;;;;;;;42.30;30.70;;;13.00;99.90;;;;;;10395355;28;20396;-86
2022/10/15 10:50:44;;;;;;;45.70;32.50;;;12.90;99.90;;;;;;10409911;28;20212;-83
2022/10/15 10:56:09;;;;;;;41.30;30.48;;;12.90;99.90;;;;;;10400939;28;20200;-84
2022/10/15 11:01:30;;;;;;;48.43;31.30;;;13.00;99.90;;;;;;10409208;28;20245;-84
2022/10/15 11:07:04;;;;;;;43.77;31.17;;;13.10;99.90;;;;;;10450602;28;20275;-83
2022/10/15 11:12:34;;;;;;;42.57;27.43;;;13.20;99.90;;;;;;10463753;28;20266;-86
2022/10/15 11:17:58;;;;;;;40.97;27.80;;;13.30;99.90;;;;;;10480247;28;20415;-85
2022/10/15 11:23:30;;;;;;;41.67;29.27;;;13.40;99.90;;;;;;10454050;28;20227;-85
2022/10/15 11:29:14;;;;;;;43.13;30.67;;;13.40;99.90;;;;;;10459481;28;20247;-84
2022/10/15 11:35:07;;;;;;;39.57;27.13;;;13.40;99.90;;;;;;10424693;28;20199;-83
2022/10/15 11:40:52;;;;;;;42.73;30.27;;;13.60;99.90;;;;;;10422708;28;20196;-85
2022/10/15 11:46:46;;;;;;;34.67;24.13;;;13.70;99.90;;;;;;10422346;28;20203;-85
2022/10/15 11:52:10;;;;;;;40.30;26.47;;;13.70;99.90;;;;;;10408879;28;20444;-86
2022/10/15 11:57:34;;;;;;;40.40;26.20;;;13.80;99.90;;;;;;10423134;28;20249;-87
2022/10/15 12:03:19;;;;;;;41.87;26.83;;;13.70;99.90;;;;;;10422939;28;20467;-85
2022/10/15 12:08:42;;;;;;;39.30;25.33;;;13.90;99.90;;;;;;10443131;28;20220;-86
2022/10/15 12:14:25;;;;;;;36.45;22.42;;;14.10;98.10;;;;;;10477106;28;20211;-86
2022/10/15 12:20:11;;;;;;;32.38;22.90;;;14.20;98.60;;;;;;10473995;28;20206;-85
2022/10/15 12:25:35;;;;;;;33.10;23.23;;;14.20;97.80;;;;;;10413001;28;20238;-86
2022/10/15 12:30:57;;;;;;;38.80;24.60;;;14.20;95.60;;;;;;10460882;28;20252;-83
2022/10/15 12:36:18;;;;;;;31.17;22.00;;;14.10;98.20;;;;;;10501023;28;20199;-86
2022/10/15 12:41:43;;;;;;;34.65;23.45;;;13.90;99.90;;;;;;10450975;28;20234;-85
2022/10/15 12:47:05;;;;;;;33.40;22.33;;;13.90;99.90;;;;;;10433904;28;20206;-86
2022/10/15 12:52:58;;;;;;;34.70;23.48;;;13.80;99.90;;;;;;10433936;28;20203;-83
2022/10/15 12:58:39;;;;;;;37.47;23.93;;;13.80;99.90;;;;;;10433475;28;20200;-85
2022/10/15 13:04:01;;;;;;;33.80;23.83;;;13.80;99.90;;;;;;10438320;28;20217;-86
2022/10/15 13:09:28;;;;;;;32.83;24.50;;;13.70;99.90;;;;;;10440259;28;20281;-85
2022/10/15 13:14:53;;;;;;;33.78;24.73;;;13.70;99.90;;;;;;10433060;28;20188;-84
2022/10/15 13:20:27;;;;;;;34.10;21.90;;;13.70;99.90;;;;;;10431052;28;20588;-85
2022/10/15 13:25:49;;;;;;;36.73;23.73;;;13.60;99.90;;;;;;10447415;28;20234;-84
2022/10/15 13:31:34;;;;;;;42.43;24.27;;;13.60;99.90;;;;;;10478444;28;20400;-85
2022/10/15 13:37:00;;;;;;;40.43;26.40;;;13.60;99.90;;;;;;10423587;28;20433;-85
2022/10/15 13:42:23;;;;;;;39.78;25.42;;;13.60;99.90;;;;;;10419629;28;20232;-83
2022/10/15 13:47:50;;;;;;;40.67;28.13;;;13.60;99.90;;;;;;10426631;28;20187;-84
2022/10/15 13:53:39;;;;;;;43.70;28.87;;;13.60;99.90;;;;;;10386879;28;20455;-85
2022/10/15 13:59:02;;;;;;;46.20;29.90;;;13.50;99.90;;;;;;10399988;28;20392;-85
2022/10/15 14:04:23;;;;;;;45.25;29.88;;;13.50;99.90;;;;;;10422712;28;20230;-85
2022/10/15 14:09:45;;;;;;;41.33;30.87;;;13.40;99.90;;;;;;10465806;28;20270;-85
2022/10/15 14:15:41;;;;;;;47.20;33.50;;;13.50;99.90;;;;;;10451453;28;20224;-85
2022/10/15 14:21:09;;;;;;;48.07;31.17;;;13.40;99.90;;;;;;10462218;28;20216;-85
2022/10/15 14:26:32;;;;;;;41.03;29.57;;;13.40;99.90;;;;;;10415650;28;20215;-85
2022/10/15 14:31:54;;;;;;;36.83;26.97;;;13.40;99.90;;;;;;10439732;28;20297;-85
2022/10/15 14:37:35;;;;;;;40.60;27.43;;;13.40;99.90;;;;;;10456467;28;20232;-84
2022/10/15 14:43:05;;;;;;;49.93;32.50;;;13.40;99.90;;;;;;10464424;28;20277;-85
2022/10/15 14:48:31;;;;;;;47.37;32.17;;;13.40;99.90;;;;;;10478491;28;20510;-86
2022/10/15 14:53:54;;;;;;;43.63;32.30;;;13.40;99.90;;;;;;10466307;28;20197;-85
2022/10/15 14:59:18;;;;;;;45.83;32.97;;;13.40;99.90;;;;;;10451422;28;20209;-84
2022/10/15 15:05:25;;;;;;;48.57;32.90;;;13.40;99.90;;;;;;10436171;28;20226;-84
2022/10/15 15:10:48;;;;;;;44.80;32.27;;;13.40;99.90;;;;;;10422843;28;20188;-82
2022/10/15 15:16:15;;;;;;;52.73;35.73;;;13.40;99.90;;;;;;10408559;28;20193;-85
2022/10/15 15:21:36;;;;;;;56.13;39.93;;;13.40;99.90;;;;;;10436043;28;20252;-84
2022/10/15 15:26:58;;;;;;;50.33;34.10;;;13.30;99.90;;;;;;10457976;28;20195;-85
2022/10/15 15:32:21;;;;;;;52.37;35.80;;;13.40;99.90;;;;;;10432819;28;20236;-85
2022/10/15 15:37:42;;;;;;;45.63;30.57;;;13.30;99.90;;;;;;10408332;28;20389;-85
2022/10/15 15:43:03;;;;;;;50.70;34.23;;;13.30;99.90;;;;;;10435553;28;20231;-83
2022/10/15 15:48:24;;;;;;;57.47;37.77;;;13.30;99.90;;;;;;10422218;28;20210;-84
2022/10/15 15:53:46;;;;;;;49.50;33.33;;;13.30;99.90;;;;;;10438697;28;20203;-85
2022/10/15 15:59:07;;;;;;;51.00;33.77;;;13.30;99.90;;;;;;10429833;28;20200;-85
2022/10/15 16:04:29;;;;;;;49.50;34.07;;;13.30;99.90;;;;;;10443832;28;20222;-86
2022/10/15 16:09:50;;;;;;;47.07;32.57;;;13.30;99.90;;;;;;10470960;28;20511;-85
2022/10/15 16:15:12;;;;;;;46.93;31.80;;;13.30;99.90;;;;;;10486694;28;20482;-84
2022/10/15 16:20:38;;;;;;;48.27;34.73;;;13.30;99.90;;;;;;10486785;28;20195;-86
2022/10/15 16:25:59;;;;;;;46.33;33.30;;;13.30;99.90;;;;;;10448669;28;20231;-85
2022/10/15 16:31:23;;;;;;;52.20;33.40;;;13.30;99.90;;;;;;10401865;28;20228;-85
2022/10/15 16:36:45;;;;;;;49.83;31.67;;;13.30;99.90;;;;;;10390434;28;20386;-83
2022/10/15 16:42:07;;;;;;;56.23;34.27;;;13.30;99.90;;;;;;10420318;28;20228;-85
2022/10/15 16:47:28;;;;;;;55.97;35.77;;;13.30;99.90;;;;;;10401568;28;20204;-84
2022/10/15 16:52:49;;;;;;;54.40;37.60;;;13.30;99.90;;;;;;10431847;28;20204;-84
2022/10/15 16:58:10;;;;;;;58.13;37.97;;;13.20;99.90;;;;;;10401935;28;20211;-85
2022/10/15 17:03:35;;;;;;;52.53;34.27;;;13.20;99.90;;;;;;10433615;28;20225;-86
2022/10/15 17:08:58;;;;;;;57.83;35.53;;;13.20;99.90;;;;;;10416467;28;20193;-86
2022/10/15 17:14:20;;;;;;;44.53;29.40;;;13.20;99.90;;;;;;10438373;28;20209;-86
2022/10/15 17:19:41;;;;;;;54.67;35.07;;;13.20;99.90;;;;;;10468754;28;20190;-84
2022/10/15 17:25:03;;;;;;;41.47;31.27;;;13.20;99.90;;;;;;10436769;28;20218;-84
2022/10/15 17:30:24;;;;;;;57.13;40.53;;;13.20;99.90;;;;;;10445762;28;20243;-85
2022/10/15 17:35:45;;;;;;;52.63;38.20;;;13.30;99.90;;;;;;10444156;28;20202;-84
2022/10/15 17:41:10;;;;;;;54.45;37.90;;;13.20;99.90;;;;;;10464188;28;20432;-84
2022/10/15 17:46:31;;;;;;;54.23;36.70;;;13.20;99.90;;;;;;10458486;28;20236;-84
2022/10/15 17:51:53;;;;;;;45.37;32.47;;;13.20;99.90;;;;;;10474286;28;20199;-85
2022/10/15 17:57:14;;;;;;;48.87;32.23;;;13.20;99.90;;;;;;10413569;28;20261;-85
2022/10/15 18:02:36;;;;;;;43.53;31.53;;;13.20;99.90;;;;;;10417457;28;20243;-86
2022/10/15 18:07:58;;;;;;;55.10;35.03;;;13.20;99.90;;;;;;10441048;28;20206;-85
2022/10/15 18:13:22;;;;;;;49.17;32.60;;;13.20;99.90;;;;;;10430234;28;20203;-84
2022/10/15 18:18:44;;;;;;;56.35;37.75;;;13.20;99.90;;;;;;10434965;28;20206;-85
2022/10/15 18:24:05;;;;;;;52.33;34.07;;;13.20;99.90;;;;;;10443106;28;20489;-84
2022/10/15 18:29:26;;;;;;;49.77;34.23;;;13.10;99.90;;;;;;10465773;28;20266;-85
2022/10/15 18:34:48;;;;;;;43.70;32.73;;;13.10;99.90;;;;;;10490356;28;20213;-84
2022/10/15 18:40:10;;;;;;;48.27;33.80;;;13.10;99.90;;;;;;10482406;28;20241;-85
2022/10/15 18:45:34;;;;;;;44.50;30.67;;;13.10;99.90;;;;;;10483444;28;20225;-84
2022/10/15 18:50:55;;;;;;;38.30;28.37;;;13.00;99.90;;;;;;10468129;28;20197;-86
2022/10/15 18:56:20;;;;;;;41.53;30.20;;;13.00;99.90;;;;;;10443703;28;20194;-85
2022/10/15 19:01:42;;;;;;;51.90;34.97;;;13.10;99.90;;;;;;10409422;28;20570;-85
2022/10/15 19:07:04;;;;;;;50.63;33.70;;;13.10;99.90;;;;;;10437230;28;20202;-85
2022/10/15 19:12:26;;;;;;;44.27;29.97;;;13.10;99.90;;;;;;10422394;28;20206;-84
2022/10/15 19:17:47;;;;;;;43.30;28.30;;;13.00;99.90;;;;;;10424068;28;20199;-86
2022/10/15 19:23:08;;;;;;;38.73;27.13;;;13.00;99.90;;;;;;10439696;28;20533;-86
2022/10/15 19:28:29;;;;;;;36.27;26.47;;;13.00;99.90;;;;;;10443426;28;20552;-84
2022/10/15 19:33:51;;;;;;;35.47;24.90;;;12.90;99.90;;;;;;10430889;28;20203;-86
2022/10/15 19:39:20;;;;;;;46.27;33.63;;;12.90;99.90;;;;;;10416440;28;20283;-86
2022/10/15 19:44:42;;;;;;;42.20;31.57;;;12.90;99.90;;;;;;10443669;28;20224;-85
2022/10/15 19:50:04;;;;;;;42.40;30.33;;;12.80;99.90;;;;;;10443769;28;20206;-85
2022/10/15 19:55:25;;;;;;;42.67;31.77;;;12.70;99.90;;;;;;10478713;28;20414;-86
2022/10/15 20:00:50;;;;;;;40.93;30.43;;;12.60;99.90;;;;;;10457210;28;20243;-84
2022/10/15 20:06:11;;;;;;;36.50;26.37;;;12.50;99.90;;;;;;10457107;28;20229;-85
2022/10/15 20:11:35;;;;;;;33.90;24.97;;;12.50;99.90;;;;;;10470936;28;20200;-85
2022/10/15 20:16:56;;;;;;;59.47;36.93;;;12.50;99.90;;;;;;10456494;28;20213;-85
2022/10/15 20:22:17;;;;;;;52.57;35.73;;;12.40;99.90;;;;;;10471587;28;20466;-86
2022/10/15 20:27:39;;;;;;;65.07;38.70;;;12.40;99.90;;;;;;10433338;28;20512;-85
2022/10/15 20:33:00;;;;;;;58.27;35.03;;;12.30;99.90;;;;;;10418016;28;20211;-85
2022/10/15 20:38:21;;;;;;;69.23;40.97;;;12.20;99.90;;;;;;10417041;28;20249;-86
2022/10/15 20:43:44;;;;;;;79.97;45.63;;;12.10;99.90;;;;;;10419819;28;20298;-86
2022/10/15 20:49:09;;;;;;;71.17;41.27;;;12.10;99.90;;;;;;10403309;28;20249;-86
2022/10/15 20:54:31;;;;;;;58.30;36.13;;;12.00;99.90;;;;;;10426096;28;20216;-86
2022/10/15 20:59:52;;;;;;;62.17;33.93;;;12.00;99.90;;;;;;10453882;28;20192;-86
2022/10/15 21:05:13;;;;;;;50.73;31.73;;;11.90;99.90;;;;;;10469895;28;20566;-84
2022/10/15 21:10:35;;;;;;;62.13;34.93;;;11.90;99.90;;;;;;10486153;28;20205;-86
2022/10/15 21:16:01;;;;;;;66.57;38.37;;;11.90;99.90;;;;;;10485548;28;20201;-86
2022/10/15 21:21:22;;;;;;;70.93;40.43;;;11.90;99.90;;;;;;10476939;28;20190;-86
2022/10/15 21:26:43;;;;;;;56.27;35.33;;;11.90;99.90;;;;;;10440690;28;20248;-85
2022/10/15 21:32:05;;;;;;;61.87;39.37;;;11.90;99.90;;;;;;10447417;28;20227;-83
2022/10/15 21:37:26;;;;;;;60.90;38.57;;;11.90;99.90;;;;;;10425757;28;20206;-85
2022/10/15 21:42:47;;;;;;;70.23;42.10;;;12.00;99.90;;;;;;10439743;28;20217;-85
2022/10/15 21:48:09;;;;;;;61.50;39.90;;;12.00;99.90;;;;;;10444757;28;20203;-83
2022/10/15 21:53:30;;;;;;;71.67;41.60;;;12.10;99.90;;;;;;10466789;28;20237;-84
2022/10/15 21:58:53;;;;;;;57.60;35.00;;;12.10;99.90;;;;;;10425331;28;20221;-85
2022/10/15 22:04:14;;;;;;;51.07;32.07;;;12.10;99.90;;;;;;10411015;28;20306;-83
2022/10/15 22:09:35;;;;;;;40.73;29.07;;;12.20;99.90;;;;;;10424535;28;20240;-86
2022/10/15 22:14:56;;;;;;;43.30;27.17;;;12.20;99.90;;;;;;10424708;28;20196;-86
2022/10/15 22:20:18;;;;;;;36.97;25.53;;;12.30;99.90;;;;;;10424128;28;20223;-85
2022/10/15 22:25:41;;;;;;;39.10;26.43;;;12.30;99.90;;;;;;10439605;28;20239;-85
2022/10/15 22:31:08;;;;;;;40.43;26.53;;;12.30;99.90;;;;;;10438675;28;20265;-85
2022/10/15 22:36:30;;;;;;;35.63;24.73;;;12.40;99.90;;;;;;10427355;28;20495;-86
2022/10/15 22:41:51;;;;;;;44.87;30.07;;;12.40;99.90;;;;;;10427091;28;20207;-85
2022/10/15 22:47:12;;;;;;;42.37;28.63;;;12.50;99.90;;;;;;10396183;28;20239;-84
2022/10/15 22:52:33;;;;;;;41.40;27.50;;;12.60;99.90;;;;;;10397354;28;20187;-86
2022/10/15 22:57:55;;;;;;;43.83;27.73;;;12.60;99.90;;;;;;10429371;28;20203;-85
2022/10/15 23:03:17;;;;;;;42.33;27.60;;;12.60;99.90;;;;;;10441245;28;20269;-85
2022/10/15 23:08:38;;;;;;;45.30;29.37;;;12.60;99.90;;;;;;10452490;28;20207;-86
2022/10/15 23:14:03;;;;;;;41.33;28.50;;;12.60;99.90;;;;;;10442880;28;20279;-85
2022/10/15 23:19:25;;;;;;;46.80;29.47;;;12.70;99.90;;;;;;10449167;28;20247;-84
2022/10/15 23:24:46;;;;;;;44.53;28.53;;;12.70;99.90;;;;;;10417767;28;20302;-85
2022/10/15 23:30:07;;;;;;;37.70;24.57;;;12.70;99.90;;;;;;10418171;28;20230;-83
2022/10/15 23:35:33;;;;;;;46.20;29.00;;;12.70;99.90;;;;;;10412007;28;20246;-86
2022/10/15 23:40:59;;;;;;;44.90;27.73;;;12.70;99.90;;;;;;10414064;28;20196;-86
2022/10/15 23:46:20;;;;;;;41.83;27.97;;;12.80;99.90;;;;;;10411410;28;20254;-86
2022/10/15 23:51:42;;;;;;;45.33;27.43;;;12.90;99.90;;;;;;10425280;28;20195;-86
2022/10/15 23:57:03;;;;;;;42.10;27.03;;;12.90;99.90;;;;;;10411425;28;20560;-86
